METAR AND TAF INFORMATION
METAR FOR VLVT
ADDS - METARS form results

(2000 UTC 23 February 2020)
Data provider http://aviationweather.gov/metar/data/
 
Forecast for: VLVT (VIENTIANE/WATTAY, LA)
Text: TAF VLVT 231700Z 2318/2418 22004KT 4000 BR FEW020 FEW050
Forecast period: 1800 UTC 23 February 2020 to 1800 UTC 24 February 2020
Forecast type: FROM: standard forecast or significant change
Winds: from the SW (220 degrees) at 5 MPH (4 knots; 2.1 m/s)
Visibility: 2.49 miles (4.01 km)
Ceiling: at least 12,000 feet AGL
Clouds: few clouds at 2000 feet AGL
few clouds at 5000 feet AGL
Weather: BR  (mist)

 AIRPORT MAP

 RUNWAY INFORMATION
Runway 13 Runway length 9843 ft Runway width 148 ft
Runway elevation 563 ft Runway displaced threshold 0 ft Runway heading 135
Runway 31 Runway length 9843 ft Runway width 148 ft
Runway elevation 563 ft Runway displaced threshold 0 ft Runway heading 315

 AIRPORT FREQUENCIES
Type APP Name VIENTIANE Frequency 119.7 MHZ
Type TWR Name VIENTIANE Frequency 118.1 MHZ

 AIRPORT NEAR NAVIGATION AIDS
Type NDB Name Vientiane Frequency 205 KHZ
Type NDB Name Thangone Frequency 405 KHZ
Type VOR-DME Name Vientiane Frequency 117500 KHZ
Type NDB Name Wattay Frequency 389 KHZ



Powered by Virtual Airlines Manager [v2.6.2]